Time;durP1;ratioP1;P1;durP2;ratioP2;P2;SDS_P1;SDS_P2;PMS_P1;PMS_P2;Temp;Humidity;BMP_temperature;BMP_pressure;BME280_temperature;BME280_humidity;BME280_pressure;Samples;Min_cycle;Max_cycle;Signal;HPM_P1;HPM_P2
2021/10/13 00:00:40;;;;;;;14.98;7.05;;;;;;;12.81;82.04;101900.94;5053780;28;20052;-67
2021/10/13 00:03:08;;;;;;;12.88;6.03;;;;;;;12.81;82.04;101905.63;5054679;28;20048;-67
2021/10/13 00:05:35;;;;;;;12.00;5.43;;;;;;;12.96;81.54;101908.16;5055114;28;20053;-67
2021/10/13 00:08:03;;;;;;;11.85;5.88;;;;;;;12.97;81.24;101910.63;5055177;28;20064;-67
2021/10/13 00:10:30;;;;;;;14.18;5.95;;;;;;;13.15;80.33;101904.28;5052956;28;20076;-67
2021/10/13 00:12:57;;;;;;;15.30;5.32;;;;;;;12.96;81.24;101906.22;5054908;28;20507;-66
2021/10/13 00:15:24;;;;;;;11.65;5.82;;;;;;;13.10;81.07;101914.59;5054952;28;20503;-66
2021/10/13 00:17:51;;;;;;;10.40;5.30;;;;;;;13.02;81.26;101907.81;5054942;28;20053;-67
2021/10/13 00:20:19;;;;;;;11.88;5.70;;;;;;;12.99;82.15;101907.59;5054932;28;20053;-67
2021/10/13 00:22:46;;;;;;;13.77;5.75;;;;;;;13.23;80.86;101906.34;5055077;28;20052;-66
2021/10/13 00:25:13;;;;;;;13.75;6.32;;;;;;;12.88;81.98;101904.16;5055119;28;20048;-66
2021/10/13 00:27:41;;;;;;;16.38;6.13;;;;;;;12.54;84.18;101905.47;5053867;28;20493;-66
2021/10/13 00:30:08;;;;;;;17.77;6.13;;;;;;;12.57;84.11;101915.94;5044991;28;20056;-66
2021/10/13 00:32:36;;;;;;;16.77;6.10;;;;;;;12.29;85.83;101917.72;5038274;28;20038;-66
2021/10/13 00:35:03;;;;;;;10.65;6.10;;;;;;;12.23;86.37;101922.47;5038672;28;20064;-67
2021/10/13 00:37:31;;;;;;;15.25;6.38;;;;;;;12.65;85.38;101923.56;5039025;28;20057;-66
2021/10/13 00:39:58;;;;;;;13.82;6.45;;;;;;;12.71;84.31;101919.63;5051689;28;20480;-66
2021/10/13 00:42:25;;;;;;;11.55;6.10;;;;;;;12.73;83.88;101929.25;5058295;28;20052;-67
2021/10/13 00:44:53;;;;;;;15.38;7.20;;;;;;;12.52;84.24;101935.38;5058663;28;20508;-66
2021/10/13 00:47:20;;;;;;;15.80;7.32;;;;;;;12.50;84.51;101935.63;5058365;28;20052;-66
2021/10/13 00:49:47;;;;;;;14.57;7.05;;;;;;;12.73;83.15;101934.78;5058255;28;20056;-67
2021/10/13 00:52:16;;;;;;;13.55;7.05;;;;;;;12.84;82.18;101940.97;5058348;28;20045;-66
2021/10/13 00:54:44;;;;;;;17.75;7.30;;;;;;;12.49;83.45;101942.28;5058304;28;20056;-66
2021/10/13 00:57:11;;;;;;;15.52;7.15;;;;;;;12.29;82.82;101937.03;5056270;28;20061;-66
2021/10/13 00:59:39;;;;;;;15.57;7.45;;;;;;;12.28;83.23;101933.44;5040415;28;20542;-67
2021/10/13 01:02:13;;;;;;;17.45;7.95;;;;;;;12.19;83.70;101948.19;5057971;28;20052;-67
2021/10/13 01:04:55;;;;;;;19.60;8.05;;;;;;;12.25;83.84;101949.78;5057969;28;20060;-66
2021/10/13 01:07:37;;;;;;;16.55;8.25;;;;;;;12.02;84.89;101943.16;5058148;28;20049;-67
2021/10/13 01:10:10;;;;;;;17.67;7.78;;;;;;;12.20;84.66;101941.56;5058178;28;20041;-67
2021/10/13 01:13:03;;;;;;;14.27;7.53;;;;;;;12.20;84.71;101950.66;5057841;28;20052;-67
2021/10/13 01:15:33;;;;;;;14.05;7.55;;;;;;;12.31;84.47;101957.72;5056507;28;20060;-65
2021/10/13 01:18:03;;;;;;;;;;;;;;;12.12;84.99;101958.78;5057068;28;20056;-66
2021/10/13 01:20:52;;;;;;;16.42;7.30;;;;;;;12.12;85.58;101950.47;5057900;28;19921;-66
2021/10/13 01:23:19;;;;;;;18.40;7.35;;;;;;;12.24;85.02;101961.94;5057798;28;20056;-66
2021/10/13 01:26:02;;;;;;;19.45;8.57;;;;;;;12.05;85.10;101947.25;5057870;28;20053;-66
2021/10/13 01:28:32;;;;;;;14.40;7.03;;;;;;;11.96;84.76;101951.78;5056691;28;20045;-66
2021/10/13 01:31:30;;;;;;;13.27;6.72;;;;;;;12.02;83.78;101959.72;5045919;28;20062;-66
2021/10/13 01:34:04;;;;;;;12.57;6.30;;;;;;;12.05;82.42;101961.06;5029172;28;20053;-66
2021/10/13 01:36:35;;;;;;;16.98;6.22;;;;;;;12.10;82.23;101959.06;5036693;28;20374;-67
2021/10/13 01:39:03;;;;;;;14.93;6.13;;;;;;;12.00;82.46;101952.84;5042441;28;20496;-67
2021/10/13 01:41:33;;;;;;;18.45;6.45;;;;;;;12.03;82.34;101958.59;5055983;28;20140;-66
2021/10/13 01:44:01;;;;;;;16.63;5.75;;;;;;;11.89;81.67;101956.84;5056233;28;20057;-66
2021/10/13 01:46:28;;;;;;;13.77;5.45;;;;;;;11.66;80.91;101960.38;5057459;28;20067;-66
2021/10/13 01:48:57;;;;;;;15.55;5.20;;;;;;;11.77;80.90;101957.22;5055857;28;20507;-66
2021/10/13 01:51:26;;;;;;;15.85;5.13;;;;;;;12.04;79.00;101957.50;5055617;28;20068;-66
2021/10/13 01:53:55;;;;;;;12.48;4.50;;;;;;;12.09;77.40;101960.19;5056321;28;20041;-67
2021/10/13 01:56:27;;;;;;;10.98;4.28;;;;;;;11.81;76.87;101954.69;5057241;28;20063;-64
2021/10/13 01:58:56;;;;;;;15.45;4.80;;;;;;;11.81;76.52;101950.00;5039042;28;20088;-64
2021/10/13 02:01:28;;;;;;;12.73;4.38;;;;;;;11.71;77.18;101947.34;5054787;28;20468;-66
2021/10/13 02:03:58;;;;;;;13.18;4.10;;;;;;;11.79;77.30;101951.41;5055665;28;20045;-66
2021/10/13 02:06:41;;;;;;;15.43;4.10;;;;;;;12.11;75.73;101959.91;5056994;28;20056;-66
2021/10/13 02:09:09;;;;;;;14.07;3.88;;;;;;;11.84;75.95;101965.97;5055667;28;20602;-66
2021/10/13 02:11:36;;;;;;;12.52;3.92;;;;;;;11.86;76.38;101963.75;5056835;28;20064;-66
2021/10/13 02:14:09;;;;;;;12.20;4.25;;;;;;;11.78;76.73;101969.91;5039125;28;20041;-66
2021/10/13 02:16:38;;;;;;;13.57;3.70;;;;;;;11.76;75.52;101971.31;5055453;28;20468;-67
2021/10/13 02:19:07;;;;;;;13.80;3.53;;;;;;;11.82;75.44;101964.63;5055026;28;20479;-67
2021/10/13 02:21:37;;;;;;;15.07;3.92;;;;;;;11.78;74.93;101966.31;5055311;28;20053;-67
2021/10/13 02:24:06;;;;;;;13.80;3.67;;;;;;;11.66;75.23;101971.41;5056469;28;20068;-67
2021/10/13 02:26:42;;;;;;;9.63;3.42;;;;;;;11.39;76.16;101974.66;5055101;28;20053;-65
2021/10/13 02:29:13;;;;;;;11.93;3.20;;;;;;;11.46;75.96;101977.06;5055485;28;20048;-66
2021/10/13 02:31:40;;;;;;;15.75;3.33;;;;;;;11.43;75.54;101978.47;5042984;28;20042;-67
2021/10/13 02:34:08;;;;;;;10.20;3.08;;;;;;;11.72;74.72;101984.88;5036340;28;20432;-67
2021/10/13 02:36:36;;;;;;;11.40;3.65;;;;;;;11.29;74.39;101983.84;5036623;28;20060;-66
2021/10/13 02:39:05;;;;;;;8.90;2.78;;;;;;;11.55;74.49;101986.38;5041937;28;20053;-65
2021/10/13 02:41:33;;;;;;;10.93;3.50;;;;;;;11.59;73.60;101980.00;5056298;28;20059;-67
2021/10/13 02:44:03;;;;;;;12.48;3.53;;;;;;;11.35;73.66;101984.59;5056462;28;20056;-66
2021/10/13 02:46:51;;;;;;;6.82;2.50;;;;;;;11.66;72.99;101982.47;5056192;28;20053;-66
2021/10/13 02:49:27;;;;;;;8.32;2.80;;;;;;;11.56;72.91;101985.28;5054986;28;20084;-65
2021/10/13 02:52:13;;;;;;;10.30;2.60;;;;;;;11.26;72.01;101984.38;5054232;28;20408;-65
2021/10/13 02:54:50;;;;;;;11.82;2.90;;;;;;;11.61;72.06;101999.03;5055113;28;20049;-67
2021/10/13 02:57:19;;;;;;;13.38;3.22;;;;;;;11.45;71.41;101989.22;5054851;28;20059;-66
2021/10/13 02:59:50;;;;;;;14.35;3.13;;;;;;;11.38;72.61;101995.06;5056035;28;20056;-65
2021/10/13 03:02:23;;;;;;;13.02;2.90;;;;;;;11.38;73.12;102005.28;5038012;28;20056;-66
2021/10/13 03:04:57;;;;;;;10.23;3.60;;;;;;;11.20;73.30;102007.63;5055916;28;20068;-65
2021/10/13 03:07:27;;;;;;;10.27;3.50;;;;;;;11.11;73.75;102001.06;5038500;28;20053;-66
2021/10/13 03:09:57;;;;;;;15.25;3.67;;;;;;;11.30;73.64;102002.03;5054782;28;20064;-67
2021/10/13 03:12:27;;;;;;;13.50;3.20;;;;;;;11.56;72.38;102002.63;5054526;28;20044;-66
2021/10/13 03:14:55;;;;;;;;;;;;;;;11.63;72.12;102007.84;5056453;28;20049;-66
2021/10/13 03:17:23;;;;;;;16.58;2.80;;;;;;;11.29;73.18;102005.91;5055361;28;19921;-66
2021/10/13 03:19:50;;;;;;;13.32;3.35;;;;;;;11.15;73.75;102001.31;5054364;28;20052;-66
2021/10/13 03:22:18;;;;;;;16.25;3.58;;;;;;;11.30;72.93;102001.19;5054134;28;20045;-65
2021/10/13 03:24:45;;;;;;;8.63;2.90;;;;;;;11.35;72.77;102001.16;5054361;28;20048;-66
2021/10/13 03:27:13;;;;;;;10.77;2.40;;;;;;;11.60;72.04;102005.66;5037765;28;20041;-66
2021/10/13 03:29:41;;;;;;;8.60;2.47;;;;;;;11.40;72.46;102011.34;5055581;28;20052;-66
2021/10/13 03:32:09;;;;;;;9.02;2.45;;;;;;;11.24;72.61;102008.66;5043727;28;20149;-66
2021/10/13 03:34:40;;;;;;;11.52;3.65;;;;;;;11.18;73.04;102015.34;5035160;28;20061;-66
2021/10/13 03:37:07;;;;;;;11.35;2.60;;;;;;;11.43;72.29;102010.75;5035427;28;20064;-66
2021/10/13 03:39:34;;;;;;;13.38;2.60;;;;;;;11.06;72.09;102020.38;5045063;28;20056;-67
2021/10/13 03:42:02;;;;;;;11.70;2.72;;;;;;;11.29;71.95;102010.59;5053953;28;20060;-64
2021/10/13 03:44:29;;;;;;;10.65;2.50;;;;;;;11.54;70.80;102015.91;5054113;28;20049;-65
2021/10/13 03:46:56;;;;;;;12.18;2.40;;;;;;;11.50;69.85;102012.09;5055069;28;20055;-65
2021/10/13 03:49:23;;;;;;;9.82;2.60;;;;;;;11.48;69.37;102010.72;5055065;28;20057;-64
2021/10/13 03:51:51;;;;;;;9.57;2.83;;;;;;;11.48;68.98;102002.44;5055152;28;20049;-64
2021/10/13 03:54:18;;;;;;;12.80;2.53;;;;;;;11.58;68.33;102013.38;5055040;28;20053;-64
2021/10/13 03:56:45;;;;;;;12.32;2.58;;;;;;;11.15;69.63;102015.94;5055219;28;20412;-64
2021/10/13 03:59:12;;;;;;;8.35;2.35;;;;;;;11.21;69.93;102012.00;5055021;28;20052;-64
2021/10/13 04:01:40;;;;;;;11.23;2.53;;;;;;;11.02;69.65;102013.78;5054964;28;20056;-64
2021/10/13 04:04:08;;;;;;;9.80;2.30;;;;;;;11.53;68.97;102021.72;5053298;28;20064;-65
2021/10/13 04:06:35;;;;;;;11.90;2.30;;;;;;;11.72;67.38;102017.16;5055015;28;20052;-65
2021/10/13 04:09:04;;;;;;;15.50;2.70;;;;;;;11.75;67.29;102030.41;5055149;28;20049;-64
2021/10/13 04:11:32;;;;;;;15.02;2.75;;;;;;;11.09;69.00;102032.75;5053983;28;20051;-64
2021/10/13 04:13:59;;;;;;;10.68;2.00;;;;;;;11.12;69.07;102033.03;5054649;28;20053;-65
2021/10/13 04:16:26;;;;;;;11.25;2.60;;;;;;;11.06;70.23;102036.94;5054760;28;20052;-66
2021/10/13 04:18:54;;;;;;;9.38;2.72;;;;;;;11.28;70.90;102036.50;5055081;28;20045;-65
2021/10/13 04:21:21;;;;;;;18.75;2.67;;;;;;;11.17;72.30;102038.53;5055053;28;20056;-66
2021/10/13 04:23:48;;;;;;;9.85;2.85;;;;;;;11.18;72.74;102044.84;5054709;28;20399;-66
2021/10/13 04:26:15;;;;;;;10.50;2.80;;;;;;;11.20;72.40;102051.75;5055168;28;20377;-67
2021/10/13 04:28:42;;;;;;;9.35;2.42;;;;;;;11.02;72.83;102052.38;5054991;28;20041;-66
2021/10/13 04:31:11;;;;;;;12.15;3.65;;;;;;;10.97;73.64;102051.59;5053581;28;20049;-67
2021/10/13 04:33:38;;;;;;;12.23;2.88;;;;;;;11.08;73.35;102058.69;5032855;28;20417;-66
2021/10/13 04:36:05;;;;;;;14.43;3.10;;;;;;;11.16;72.90;102053.41;5015161;28;20049;-67
2021/10/13 04:38:32;;;;;;;11.70;3.33;;;;;;;11.25;72.89;102059.16;5017390;28;20050;-66
2021/10/13 04:41:00;;;;;;;10.73;3.10;;;;;;;11.32;72.45;102063.25;5054781;28;20055;-66
2021/10/13 04:43:27;;;;;;;10.50;2.58;;;;;;;11.49;72.04;102067.56;5054405;28;20053;-66
2021/10/13 04:45:54;;;;;;;10.38;2.83;;;;;;;11.67;71.46;102058.59;5054717;28;20049;-67
2021/10/13 04:48:22;;;;;;;14.85;3.20;;;;;;;11.44;71.24;102062.88;5052515;28;20068;-67
2021/10/13 04:50:49;;;;;;;14.55;3.53;;;;;;;11.19;71.73;102068.59;5053396;28;20052;-67
2021/10/13 04:53:17;;;;;;;8.80;2.78;;;;;;;11.04;72.13;102075.00;5055004;28;20056;-66
2021/10/13 04:55:44;;;;;;;11.02;3.13;;;;;;;11.08;72.64;102069.72;5055040;28;20052;-66
2021/10/13 04:58:11;;;;;;;12.20;2.90;;;;;;;10.91;72.97;102075.59;5054761;28;20056;-67
2021/10/13 05:00:39;;;;;;;12.73;2.80;;;;;;;11.01;73.10;102078.31;5054556;28;20053;-66
2021/10/13 05:03:07;;;;;;;12.95;3.08;;;;;;;10.84;72.88;102088.88;5054270;28;20057;-66
2021/10/13 05:05:35;;;;;;;9.52;2.53;;;;;;;10.94;72.44;102086.06;5054444;28;20045;-66
2021/10/13 05:08:03;;;;;;;15.10;2.65;;;;;;;11.08;72.55;102075.25;5054645;28;20086;-66
2021/10/13 05:10:30;;;;;;;11.63;2.95;;;;;;;11.05;72.32;102081.34;5053492;28;20053;-68
2021/10/13 05:12:58;;;;;;;11.02;2.80;;;;;;;10.87;72.83;102088.31;5036860;28;20055;-67
2021/10/13 05:15:29;;;;;;;16.38;2.97;;;;;;;11.05;72.31;102084.91;5056099;28;20052;-66
2021/10/13 05:17:56;;;;;;;16.90;3.47;;;;;;;11.21;71.75;102091.16;5056769;28;20053;-66
2021/10/13 05:20:24;;;;;;;16.30;3.47;;;;;;;11.10;71.40;102095.09;5057001;28;20049;-66
2021/10/13 05:22:51;;;;;;;13.48;2.85;;;;;;;10.94;72.37;102099.03;5057828;28;20526;-66
2021/10/13 05:25:18;;;;;;;16.10;3.70;;;;;;;11.15;71.44;102093.16;5057703;28;20041;-66
2021/10/13 05:27:46;;;;;;;16.05;3.13;;;;;;;11.04;71.94;102096.22;5057894;28;20045;-66
2021/10/13 05:30:13;;;;;;;9.63;2.88;;;;;;;11.06;72.07;102099.53;5056608;28;20056;-67
2021/10/13 05:32:40;;;;;;;20.23;3.42;;;;;;;11.32;70.82;102104.63;5053934;28;20058;-66
2021/10/13 05:35:07;;;;;;;11.65;3.25;;;;;;;11.37;70.44;102111.22;5035277;28;20650;-69
2021/10/13 05:37:34;;;;;;;12.23;3.53;;;;;;;10.95;71.78;102107.00;5038037;28;20061;-66
2021/10/13 05:40:02;;;;;;;13.65;3.75;;;;;;;10.80;72.24;102107.09;5044339;28;20094;-67
2021/10/13 05:42:30;;;;;;;12.02;2.97;;;;;;;10.76;72.60;102111.50;5036286;28;20121;-67
2021/10/13 05:44:57;;;;;;;10.35;3.60;;;;;;;10.90;72.86;102111.72;5036913;28;20053;-67
2021/10/13 05:47:24;;;;;;;17.95;3.28;;;;;;;10.73;72.68;102113.97;5032065;28;20049;-67
2021/10/13 05:49:51;;;;;;;14.05;2.78;;;;;;;10.65;72.76;102114.56;5035871;28;20049;-66
2021/10/13 05:52:19;;;;;;;11.00;3.45;;;;;;;10.72;72.45;102113.16;5035342;28;20227;-66
2021/10/13 05:54:46;;;;;;;11.40;3.75;;;;;;;10.75;72.29;102114.53;5034071;28;20049;-67
2021/10/13 05:57:13;;;;;;;16.33;3.63;;;;;;;10.92;72.38;102113.09;5033311;28;20049;-65
2021/10/13 05:59:42;;;;;;;10.25;3.83;;;;;;;11.28;71.33;102106.28;5029411;28;20052;-67
2021/10/13 06:02:09;;;;;;;13.68;3.55;;;;;;;11.34;69.86;102115.38;5033539;28;20049;-67
2021/10/13 06:04:37;;;;;;;13.27;3.47;;;;;;;10.86;71.25;102124.44;5028509;28;20041;-67
2021/10/13 06:07:04;;;;;;;18.00;3.50;;;;;;;10.73;71.86;102125.00;5022378;28;20045;-65
2021/10/13 06:09:31;;;;;;;13.10;3.15;;;;;;;10.64;71.94;102121.16;5029742;28;20048;-67
2021/10/13 06:11:59;;;;;;;13.00;3.47;;;;;;;10.62;71.63;102121.44;5033073;28;20503;-66
2021/10/13 06:14:26;;;;;;;13.30;3.50;;;;;;;10.70;71.24;102125.56;5034896;28;20045;-66
2021/10/13 06:16:54;;;;;;;12.52;3.17;;;;;;;10.83;71.31;102127.72;5036759;28;20370;-66
2021/10/13 06:19:21;;;;;;;19.02;3.53;;;;;;;10.51;72.21;102136.38;5035530;28;20607;-66
2021/10/13 06:21:48;;;;;;;16.05;3.55;;;;;;;10.65;71.86;102131.91;5036474;28;20045;-65
2021/10/13 06:24:15;;;;;;;20.10;4.07;;;;;;;10.53;72.29;102145.16;5035056;28;20045;-67
2021/10/13 06:26:43;;;;;;;11.32;3.40;;;;;;;10.71;71.90;102138.25;5033959;28;20440;-66
2021/10/13 06:29:10;;;;;;;12.13;2.90;;;;;;;10.81;70.80;102141.78;5034582;28;20049;-68
2021/10/13 06:31:37;;;;;;;17.70;3.40;;;;;;;10.67;71.45;102148.19;5034084;28;20058;-67
2021/10/13 06:34:05;;;;;;;24.77;3.67;;;;;;;11.11;70.84;102149.97;5034340;28;20069;-67
2021/10/13 06:36:32;;;;;;;25.75;3.72;;;;;;;11.03;69.53;102155.25;5035729;28;20045;-68
2021/10/13 06:38:59;;;;;;;13.43;2.70;;;;;;;11.11;70.20;102163.75;5038046;28;20053;-66
2021/10/13 06:41:28;;;;;;;16.98;3.45;;;;;;;11.30;71.62;102155.66;5031294;28;20061;-67
2021/10/13 06:43:56;;;;;;;13.03;4.37;;;;;;;11.80;70.70;102160.91;5035231;28;20069;-67
2021/10/13 06:46:23;;;;;;;26.67;5.70;;;;;;;11.90;71.28;102158.09;5032412;28;20409;-67
2021/10/13 06:48:50;;;;;;;20.85;5.03;;;;;;;11.88;70.25;102162.25;5034391;28;20053;-66
2021/10/13 06:51:17;;;;;;;21.23;5.57;;;;;;;12.24;70.70;102156.16;5034960;28;20046;-66
2021/10/13 06:53:46;;;;;;;12.25;5.38;;;;;;;11.94;70.55;102155.59;5034276;28;20065;-67
2021/10/13 06:56:14;;;;;;;18.25;6.03;;;;;;;12.33;70.61;102148.06;5034404;28;20049;-67
2021/10/13 06:58:42;;;;;;;15.73;4.55;;;;;;;12.22;69.62;102149.28;5036155;28;20488;-68
2021/10/13 07:01:09;;;;;;;21.33;5.55;;;;;;;12.54;70.39;102141.22;5035687;28;20389;-67
2021/10/13 07:03:36;;;;;;;18.30;5.82;;;;;;;12.35;70.79;102154.97;5035507;28;20065;-67
2021/10/13 07:06:04;;;;;;;23.73;6.15;;;;;;;12.35;70.90;102154.97;5031605;28;20056;-65
2021/10/13 07:08:31;;;;;;;18.77;6.82;;;;;;;12.48;70.76;102154.25;5048643;28;20628;-66
2021/10/13 07:10:58;;;;;;;18.58;5.72;;;;;;;12.65;70.33;102164.91;5033643;28;20049;-66
2021/10/13 07:13:25;;;;;;;28.40;7.22;;;;;;;12.62;70.08;102173.78;5035591;28;20053;-66
2021/10/13 07:15:53;;;;;;;21.15;7.00;;;;;;;12.25;71.02;102181.84;5034648;28;20045;-66
2021/10/13 07:18:20;;;;;;;29.02;6.72;;;;;;;12.13;71.45;102184.16;5040087;28;20050;-65
2021/10/13 07:20:47;;;;;;;25.23;6.65;;;;;;;12.03;72.39;102175.97;5035754;28;20053;-66
2021/10/13 07:23:14;;;;;;;21.27;8.32;;;;;;;11.98;72.42;102189.78;5034583;28;20092;-65
2021/10/13 07:25:42;;;;;;;32.60;7.60;;;;;;;11.84;72.71;102188.75;5034724;28;20661;-66
2021/10/13 07:28:10;;;;;;;27.52;7.38;;;;;;;12.05;72.83;102188.34;5034684;28;20049;-65
2021/10/13 07:30:38;;;;;;;20.70;8.38;;;;;;;12.11;72.68;102197.44;5034487;28;20052;-67
2021/10/13 07:33:08;;;;;;;21.50;7.93;;;;;;;11.92;73.05;102199.22;5034987;28;20052;-66
2021/10/13 07:35:36;;;;;;;21.15;7.57;;;;;;;12.12;72.26;102202.66;5030452;28;20528;-66
2021/10/13 07:38:04;;;;;;;25.85;7.95;;;;;;;11.82;73.47;102199.28;5034454;28;20059;-66
2021/10/13 07:40:32;;;;;;;32.65;7.45;;;;;;;12.33;72.42;102204.16;5046106;28;20053;-66
2021/10/13 07:42:59;;;;;;;36.97;9.80;;;;;;;12.02;72.47;102202.75;5035091;28;20057;-65
2021/10/13 07:45:27;;;;;;;30.42;9.93;;;;;;;12.00;72.66;102198.59;5034742;28;21818;-65
2021/10/13 07:47:54;;;;;;;34.13;8.50;;;;;;;12.13;72.72;102204.28;5035231;28;20048;-66
2021/10/13 07:50:22;;;;;;;28.40;8.13;;;;;;;12.02;72.61;102208.25;5032492;28;20429;-65
2021/10/13 07:52:49;;;;;;;21.50;6.80;;;;;;;12.34;72.01;102207.75;5034575;28;20042;-66
2021/10/13 07:55:16;;;;;;;27.70;8.85;;;;;;;12.15;72.26;102204.03;5049630;28;20496;-65
2021/10/13 07:57:44;;;;;;;27.60;9.93;;;;;;;12.02;72.42;102202.75;5034001;28;20072;-66
2021/10/13 08:00:12;;;;;;;29.30;9.52;;;;;;;12.39;71.74;102203.00;5022690;28;20046;-66
2021/10/13 08:02:44;;;;;;;29.88;7.70;;;;;;;12.37;71.91;102210.75;5034108;28;20053;-65
2021/10/13 08:05:12;;;;;;;25.38;8.75;;;;;;;12.29;71.81;102211.34;5034374;28;20080;-66
2021/10/13 08:07:39;;;;;;;28.23;8.85;;;;;;;12.38;71.34;102214.31;5034666;28;20042;-66
2021/10/13 08:10:07;;;;;;;36.13;8.50;;;;;;;12.33;71.66;102219.91;5034700;28;20413;-66
2021/10/13 08:12:34;;;;;;;29.13;8.73;;;;;;;12.40;71.58;102217.63;5034344;28;20049;-67
2021/10/13 08:15:02;;;;;;;29.02;8.57;;;;;;;12.38;71.14;102211.56;5032465;28;20049;-67
2021/10/13 08:17:29;;;;;;;28.65;8.48;;;;;;;12.52;71.42;102218.06;5014183;28;20053;-65
2021/10/13 08:19:57;;;;;;;32.72;9.20;;;;;;;12.59;71.11;102217.75;5034806;28;20068;-66
2021/10/13 08:22:24;;;;;;;29.08;9.45;;;;;;;12.58;70.66;102211.41;5034188;28;20053;-66
2021/10/13 08:24:51;;;;;;;25.65;8.32;;;;;;;12.64;70.53;102203.88;5034935;28;20057;-69
2021/10/13 08:27:18;;;;;;;20.30;8.30;;;;;;;12.50;70.78;102208.44;5033888;28;20384;-67
2021/10/13 08:29:45;;;;;;;18.50;7.88;;;;;;;12.82;69.67;102208.66;5033372;28;20065;-67
2021/10/13 08:32:13;;;;;;;23.88;8.50;;;;;;;12.58;70.04;102208.63;5016333;28;20503;-66
2021/10/13 08:34:40;;;;;;;24.48;9.02;;;;;;;12.64;69.74;102203.88;5033128;28;20543;-68
2021/10/13 08:37:08;;;;;;;21.55;8.15;;;;;;;12.66;69.57;102216.28;5034442;28;20050;-66
2021/10/13 08:39:35;;;;;;;27.58;8.50;;;;;;;12.39;70.35;102211.31;5042877;28;20508;-67
2021/10/13 08:42:02;;;;;;;26.40;8.25;;;;;;;12.39;70.36;102219.59;5033211;28;20054;-66
2021/10/13 08:44:31;;;;;;;24.98;9.68;;;;;;;12.35;70.13;102221.28;5034077;28;20040;-65
2021/10/13 08:46:58;;;;;;;22.65;8.25;;;;;;;12.15;70.49;102226.13;5033615;28;20045;-66
2021/10/13 08:49:26;;;;;;;24.98;8.13;;;;;;;12.16;70.29;102222.25;5032631;28;20053;-65
2021/10/13 08:51:53;;;;;;;20.75;7.90;;;;;;;11.83;70.98;102232.13;5037974;28;20041;-65
2021/10/13 08:54:21;;;;;;;27.35;8.10;;;;;;;11.92;71.07;102227.66;5037804;28;20376;-66
2021/10/13 08:56:48;;;;;;;19.38;7.63;;;;;;;12.25;69.99;102223.28;5037227;28;20374;-66
2021/10/13 08:59:39;;;;;;;28.13;8.50;;;;;;;12.34;68.96;102233.41;5031679;28;20057;-66
2021/10/13 09:02:08;;;;;;;18.92;7.82;;;;;;;12.71;68.33;102230.06;5034765;28;20056;-65
2021/10/13 09:05:13;;;;;;;26.08;8.13;;;;;;;12.68;67.82;102235.34;5037513;28;20117;-66
2021/10/13 09:07:53;;;;;;;22.90;7.57;;;;;;;12.57;67.61;102236.56;5038070;28;20634;-66
2021/10/13 09:10:27;;;;;;;24.63;6.80;;;;;;;12.60;67.58;102233.22;5036397;28;20516;-68
2021/10/13 09:12:54;;;;;;;20.98;5.85;;;;;;;12.48;65.58;102227.25;5037218;28;20053;-67
2021/10/13 09:15:26;;;;;;;15.45;3.95;;;;;;;12.65;62.61;102231.25;5036476;28;20507;-66
2021/10/13 09:18:02;;;;;;;15.93;3.58;;;;;;;12.93;61.52;102232.34;5037731;28;20057;-66
2021/10/13 09:20:39;;;;;;;14.65;4.10;;;;;;;13.01;59.78;102226.16;5037684;28;20437;-66
2021/10/13 09:23:19;;;;;;;18.13;3.65;;;;;;;13.30;58.77;102229.75;5036860;28;20053;-66
2021/10/13 09:26:00;;;;;;;24.42;4.93;;;;;;;12.73;59.31;102225.06;5049795;28;20661;-65
2021/10/13 09:28:28;;;;;;;16.70;4.47;;;;;;;12.35;59.78;102232.31;5039022;28;20045;-66
2021/10/13 09:30:55;;;;;;;19.92;5.30;;;;;;;12.78;59.48;102230.53;5044007;28;20038;-66
2021/10/13 09:33:22;;;;;;;18.45;4.50;;;;;;;13.05;59.00;102228.09;5037260;28;20053;-66
2021/10/13 09:35:52;;;;;;;24.00;4.63;;;;;;;13.08;58.12;102238.56;5035726;28;20045;-65
2021/10/13 09:38:24;;;;;;;25.17;6.07;;;;;;;13.11;58.14;102235.22;5038461;28;20065;-66
2021/10/13 09:41:00;;;;;;;27.70;4.70;;;;;;;13.21;57.37;102232.34;5037835;28;20056;-66
2021/10/13 09:43:35;;;;;;;15.90;4.35;;;;;;;12.90;56.34;102242.03;5035334;28;20057;-68
2021/10/13 09:46:04;;;;;;;16.45;3.88;;;;;;;12.79;56.62;102231.38;5035342;28;20046;-66
2021/10/13 09:48:31;;;;;;;20.30;3.78;;;;;;;12.63;55.67;102235.41;5037284;28;20050;-67
2021/10/13 09:51:15;;;;;;;16.75;3.53;;;;;;;12.74;56.22;102240.56;5037418;28;20049;-68
2021/10/13 09:53:44;;;;;;;15.68;3.60;;;;;;;12.59;57.08;102235.16;5037535;28;20064;-66
2021/10/13 09:56:36;;;;;;;14.90;3.97;;;;;;;12.87;56.48;102242.63;5036229;28;20050;-66
2021/10/13 09:59:07;;;;;;;22.90;4.20;;;;;;;12.68;57.66;102243.63;5037163;28;20053;-66
2021/10/13 10:01:35;;;;;;;10.23;3.42;;;;;;;12.96;56.62;102238.13;5036143;28;20504;-67
2021/10/13 10:04:05;;;;;;;13.90;3.75;;;;;;;13.16;55.87;102237.91;5037043;28;20060;-65
2021/10/13 10:06:34;;;;;;;20.45;4.40;;;;;;;13.32;55.76;102236.63;5035946;28;20045;-67
2021/10/13 10:09:04;;;;;;;13.97;4.10;;;;;;;13.78;54.91;102244.34;5036492;28;20145;-66
2021/10/13 10:11:40;;;;;;;19.23;5.40;;;;;;;13.68;52.88;102241.72;5035306;28;20049;-66
2021/10/13 10:14:33;;;;;;;12.05;5.00;;;;;;;13.63;52.79;102252.88;5037496;28;20519;-66
2021/10/13 10:17:04;;;;;;;28.13;3.92;;;;;;;13.32;53.12;102249.63;5034325;28;20054;-66
2021/10/13 10:19:45;;;;;;;13.75;3.03;;;;;;;12.99;53.43;102250.56;5035742;28;20061;-66
2021/10/13 10:22:18;;;;;;;13.35;2.80;;;;;;;13.27;53.47;102247.75;5034803;28;20060;-66
2021/10/13 10:24:53;;;;;;;13.90;2.83;;;;;;;12.96;54.56;102243.66;5018872;28;20057;-66
2021/10/13 10:27:25;;;;;;;13.00;3.08;;;;;;;13.09;54.00;102240.22;5035832;28;20038;-66
2021/10/13 10:30:14;;;;;;;12.63;2.75;;;;;;;13.69;52.87;102243.34;5035933;28;20452;-65
2021/10/13 10:32:46;;;;;;;8.20;2.38;;;;;;;13.77;52.14;102238.00;5030977;28;20056;-68
2021/10/13 10:35:16;;;;;;;13.05;3.40;;;;;;;13.96;52.07;102240.78;5032105;28;20083;-70
2021/10/13 10:37:48;;;;;;;13.85;3.20;;;;;;;13.79;52.60;102234.94;5032133;28;20053;-68
2021/10/13 10:40:29;;;;;;;13.10;3.28;;;;;;;13.10;53.23;102241.88;5034052;28;20385;-66
2021/10/13 10:43:00;;;;;;;14.55;3.30;;;;;;;13.27;53.60;102245.00;5032989;28;20057;-70
2021/10/13 10:45:28;;;;;;;10.82;2.55;;;;;;;13.49;51.36;102239.72;5035634;28;20053;-68
2021/10/13 10:48:05;;;;;;;10.30;2.20;;;;;;;13.72;51.01;102238.06;5036741;28;20049;-69
2021/10/13 10:50:38;;;;;;;10.50;2.58;;;;;;;13.74;49.92;102224.72;5035706;28;20041;-71
2021/10/13 10:53:18;;;;;;;8.60;2.53;;;;;;;13.61;49.90;102228.25;5035603;28;20050;-70
2021/10/13 10:55:46;;;;;;;12.88;3.20;;;;;;;13.92;50.76;102223.09;5033558;28;20049;-69
2021/10/13 10:58:21;;;;;;;12.68;3.35;;;;;;;14.21;49.91;102221.00;5034526;28;20053;-69
2021/10/13 11:01:02;;;;;;;13.38;4.03;;;;;;;14.33;49.64;102224.19;5053105;28;20052;-70
2021/10/13 11:03:42;;;;;;;10.80;3.00;;;;;;;13.99;50.06;102234.63;5047189;28;20053;-69
2021/10/13 11:06:11;;;;;;;11.60;3.13;;;;;;;14.13;50.75;102233.59;5018024;28;20064;-68
2021/10/13 11:08:51;;;;;;;11.23;3.47;;;;;;;13.90;51.35;102236.41;5040928;28;20049;-68
2021/10/13 11:11:23;;;;;;;10.27;3.03;;;;;;;13.81;51.49;102235.47;5027306;28;20058;-69
2021/10/13 11:14:14;;;;;;;13.45;4.10;;;;;;;14.10;50.42;102234.19;5024315;28;20045;-71
2021/10/13 11:16:59;;;;;;;13.63;4.13;;;;;;;14.02;50.40;102237.63;5036019;28;20540;-68
2021/10/13 11:19:31;;;;;;;16.70;7.25;;;;;;;14.19;50.88;102242.66;5035863;28;20053;-67
2021/10/13 11:22:03;;;;;;;10.70;2.83;;;;;;;14.28;48.04;102250.00;5035619;28;20516;-69
2021/10/13 11:24:35;;;;;;;10.77;3.17;;;;;;;14.35;47.58;102244.91;5035770;28;20053;-69
2021/10/13 11:27:03;;;;;;;16.35;4.93;;;;;;;14.52;46.99;102238.81;5035555;28;20054;-70
2021/10/13 11:29:36;;;;;;;12.55;4.60;;;;;;;14.49;46.12;102245.78;5024607;28;20056;-70
2021/10/13 11:32:11;;;;;;;11.50;3.42;;;;;;;14.56;45.82;102239.84;5033488;28;20413;-69